sensor_id;sensor_type;location;lat;lon;timestamp;P1;durP1;ratioP1;P2;durP2;ratioP2
68072;SDS011;54862;51.502;7.446;2023-02-01T00:01:30;24.63;;;9.73;;
68072;SDS011;54862;51.502;7.446;2023-02-01T00:03:56;23.05;;;9.40;;
68072;SDS011;54862;51.502;7.446;2023-02-01T00:06:22;28.25;;;8.68;;
68072;SDS011;54862;51.502;7.446;2023-02-01T00:08:48;20.05;;;8.23;;
68072;SDS011;54862;51.502;7.446;2023-02-01T00:11:14;20.10;;;9.15;;
68072;SDS011;54862;51.502;7.446;2023-02-01T00:13:41;22.02;;;8.68;;
68072;SDS011;54862;51.502;7.446;2023-02-01T00:18:33;30.92;;;8.63;;
68072;SDS011;54862;51.502;7.446;2023-02-01T00:20:59;20.48;;;7.85;;
68072;SDS011;54862;51.502;7.446;2023-02-01T00:23:25;17.45;;;7.43;;
68072;SDS011;54862;51.502;7.446;2023-02-01T00:25:51;18.27;;;6.78;;
68072;SDS011;54862;51.502;7.446;2023-02-01T00:28:17;19.88;;;7.75;;
68072;SDS011;54862;51.502;7.446;2023-02-01T00:30:43;21.60;;;7.22;;
68072;SDS011;54862;51.502;7.446;2023-02-01T00:33:09;22.00;;;6.63;;
68072;SDS011;54862;51.502;7.446;2023-02-01T00:35:35;18.45;;;6.95;;
68072;SDS011;54862;51.502;7.446;2023-02-01T00:38:01;16.02;;;5.47;;
68072;SDS011;54862;51.502;7.446;2023-02-01T00:40:27;21.70;;;5.88;;
68072;SDS011;54862;51.502;7.446;2023-02-01T00:42:53;19.65;;;6.50;;
68072;SDS011;54862;51.502;7.446;2023-02-01T00:45:19;17.55;;;5.60;;
68072;SDS011;54862;51.502;7.446;2023-02-01T00:47:45;12.85;;;5.03;;
68072;SDS011;54862;51.502;7.446;2023-02-01T00:50:11;15.57;;;4.88;;
68072;SDS011;54862;51.502;7.446;2023-02-01T00:52:37;17.15;;;5.20;;
68072;SDS011;54862;51.502;7.446;2023-02-01T00:55:03;18.35;;;5.57;;
68072;SDS011;54862;51.502;7.446;2023-02-01T00:57:30;15.63;;;4.13;;
68072;SDS011;54862;51.502;7.446;2023-02-01T00:59:56;17.95;;;4.75;;
68072;SDS011;54862;51.502;7.446;2023-02-01T01:02:22;16.40;;;4.72;;
68072;SDS011;54862;51.502;7.446;2023-02-01T01:04:48;13.65;;;3.78;;
68072;SDS011;54862;51.502;7.446;2023-02-01T01:07:14;18.15;;;4.13;;
68072;SDS011;54862;51.502;7.446;2023-02-01T01:09:40;20.40;;;5.03;;
68072;SDS011;54862;51.502;7.446;2023-02-01T01:12:06;18.85;;;4.07;;
68072;SDS011;54862;51.502;7.446;2023-02-01T01:14:32;14.35;;;3.92;;
68072;SDS011;54862;51.502;7.446;2023-02-01T01:16:58;14.07;;;4.28;;
68072;SDS011;54862;51.502;7.446;2023-02-01T01:19:24;11.95;;;4.03;;
68072;SDS011;54862;51.502;7.446;2023-02-01T01:21:50;16.25;;;4.63;;
68072;SDS011;54862;51.502;7.446;2023-02-01T01:24:16;12.57;;;4.07;;
68072;SDS011;54862;51.502;7.446;2023-02-01T01:26:42;14.98;;;4.03;;
68072;SDS011;54862;51.502;7.446;2023-02-01T01:29:08;14.13;;;4.57;;
68072;SDS011;54862;51.502;7.446;2023-02-01T01:31:35;12.30;;;3.22;;
68072;SDS011;54862;51.502;7.446;2023-02-01T01:34:01;14.88;;;3.53;;
68072;SDS011;54862;51.502;7.446;2023-02-01T01:36:28;15.75;;;3.60;;
68072;SDS011;54862;51.502;7.446;2023-02-01T01:38:54;12.13;;;3.10;;
68072;SDS011;54862;51.502;7.446;2023-02-01T01:41:24;13.70;;;3.78;;
68072;SDS011;54862;51.502;7.446;2023-02-01T01:46:42;15.73;;;3.95;;
68072;SDS011;54862;51.502;7.446;2023-02-01T01:51:38;15.85;;;4.10;;
68072;SDS011;54862;51.502;7.446;2023-02-01T01:56:32;19.23;;;4.22;;
68072;SDS011;54862;51.502;7.446;2023-02-01T01:58:58;12.82;;;3.92;;
68072;SDS011;54862;51.502;7.446;2023-02-01T02:01:24;13.82;;;4.70;;
68072;SDS011;54862;51.502;7.446;2023-02-01T02:03:50;15.45;;;4.10;;
68072;SDS011;54862;51.502;7.446;2023-02-01T02:07:02;18.13;;;4.07;;
68072;SDS011;54862;51.502;7.446;2023-02-01T02:09:03;13.32;;;3.80;;
68072;SDS011;54862;51.502;7.446;2023-02-01T02:11:29;19.52;;;4.32;;
68072;SDS011;54862;51.502;7.446;2023-02-01T02:13:55;14.32;;;4.43;;
68072;SDS011;54862;51.502;7.446;2023-02-01T02:16:25;15.55;;;4.07;;
68072;SDS011;54862;51.502;7.446;2023-02-01T02:21:43;18.98;;;5.13;;
68072;SDS011;54862;51.502;7.446;2023-02-01T02:44:24;11.13;;;3.70;;
68072;SDS011;54862;51.502;7.446;2023-02-01T02:47:13;12.02;;;3.90;;
68072;SDS011;54862;51.502;7.446;2023-02-01T02:50:09;11.27;;;4.00;;
68072;SDS011;54862;51.502;7.446;2023-02-01T02:53:00;15.48;;;3.92;;
68072;SDS011;54862;51.502;7.446;2023-02-01T02:55:46;17.52;;;3.80;;
68072;SDS011;54862;51.502;7.446;2023-02-01T02:58:12;12.68;;;3.63;;
68072;SDS011;54862;51.502;7.446;2023-02-01T03:00:58;10.82;;;3.00;;
68072;SDS011;54862;51.502;7.446;2023-02-01T03:03:43;14.50;;;3.75;;
68072;SDS011;54862;51.502;7.446;2023-02-01T03:06:28;14.65;;;4.18;;
68072;SDS011;54862;51.502;7.446;2023-02-01T03:08:54;16.13;;;4.18;;
68072;SDS011;54862;51.502;7.446;2023-02-01T03:11:22;14.77;;;3.45;;
68072;SDS011;54862;51.502;7.446;2023-02-01T03:14:09;11.90;;;3.15;;
68072;SDS011;54862;51.502;7.446;2023-02-01T03:16:58;13.60;;;4.05;;
68072;SDS011;54862;51.502;7.446;2023-02-01T03:19:27;16.77;;;3.78;;
68072;SDS011;54862;51.502;7.446;2023-02-01T03:21:57;11.80;;;3.20;;
68072;SDS011;54862;51.502;7.446;2023-02-01T03:24:25;7.93;;;2.60;;
68072;SDS011;54862;51.502;7.446;2023-02-01T03:27:00;11.48;;;2.85;;
68072;SDS011;54862;51.502;7.446;2023-02-01T03:29:29;18.55;;;3.65;;
68072;SDS011;54862;51.502;7.446;2023-02-01T03:31:56;16.73;;;3.45;;
68072;SDS011;54862;51.502;7.446;2023-02-01T03:34:22;13.40;;;3.10;;
68072;SDS011;54862;51.502;7.446;2023-02-01T03:36:50;17.92;;;2.75;;
68072;SDS011;54862;51.502;7.446;2023-02-01T03:39:24;15.25;;;3.10;;
68072;SDS011;54862;51.502;7.446;2023-02-01T03:41:53;11.07;;;2.67;;
68072;SDS011;54862;51.502;7.446;2023-02-01T03:44:23;11.38;;;3.28;;
68072;SDS011;54862;51.502;7.446;2023-02-01T03:49:34;14.00;;;4.90;;
68072;SDS011;54862;51.502;7.446;2023-02-01T03:52:01;10.70;;;3.30;;
68072;SDS011;54862;51.502;7.446;2023-02-01T03:54:28;14.00;;;3.70;;
68072;SDS011;54862;51.502;7.446;2023-02-01T03:56:55;21.50;;;3.70;;
68072;SDS011;54862;51.502;7.446;2023-02-01T03:59:22;10.75;;;2.70;;
68072;SDS011;54862;51.502;7.446;2023-02-01T04:01:49;10.10;;;2.95;;
68072;SDS011;54862;51.502;7.446;2023-02-01T04:04:15;14.18;;;3.33;;
68072;SDS011;54862;51.502;7.446;2023-02-01T04:06:47;11.73;;;2.72;;
68072;SDS011;54862;51.502;7.446;2023-02-01T04:09:14;8.50;;;2.30;;
68072;SDS011;54862;51.502;7.446;2023-02-01T04:11:40;15.48;;;3.20;;
68072;SDS011;54862;51.502;7.446;2023-02-01T04:14:06;17.30;;;3.10;;
68072;SDS011;54862;51.502;7.446;2023-02-01T04:16:32;14.48;;;3.08;;
68072;SDS011;54862;51.502;7.446;2023-02-01T04:18:58;18.60;;;3.17;;
68072;SDS011;54862;51.502;7.446;2023-02-01T04:21:25;8.82;;;2.97;;
68072;SDS011;54862;51.502;7.446;2023-02-01T04:23:51;13.02;;;2.80;;
68072;SDS011;54862;51.502;7.446;2023-02-01T04:26:17;15.45;;;3.05;;
68072;SDS011;54862;51.502;7.446;2023-02-01T04:28:44;14.50;;;3.08;;
68072;SDS011;54862;51.502;7.446;2023-02-01T04:31:12;13.30;;;3.17;;
68072;SDS011;54862;51.502;7.446;2023-02-01T04:33:38;14.32;;;2.90;;
68072;SDS011;54862;51.502;7.446;2023-02-01T04:36:04;14.70;;;2.95;;
68072;SDS011;54862;51.502;7.446;2023-02-01T04:38:30;17.25;;;3.90;;
68072;SDS011;54862;51.502;7.446;2023-02-01T04:40:57;11.73;;;3.50;;
68072;SDS011;54862;51.502;7.446;2023-02-01T04:43:23;18.17;;;3.65;;
68072;SDS011;54862;51.502;7.446;2023-02-01T04:45:50;16.30;;;3.17;;
68072;SDS011;54862;51.502;7.446;2023-02-01T04:48:16;13.70;;;3.45;;
68072;SDS011;54862;51.502;7.446;2023-02-01T04:50:43;12.50;;;3.45;;
68072;SDS011;54862;51.502;7.446;2023-02-01T04:53:12;18.88;;;3.70;;
68072;SDS011;54862;51.502;7.446;2023-02-01T04:55:38;13.93;;;3.97;;
68072;SDS011;54862;51.502;7.446;2023-02-01T04:58:04;14.65;;;3.60;;
68072;SDS011;54862;51.502;7.446;2023-02-01T05:00:30;18.58;;;4.25;;
68072;SDS011;54862;51.502;7.446;2023-02-01T05:02:56;13.95;;;3.42;;
68072;SDS011;54862;51.502;7.446;2023-02-01T05:05:22;9.65;;;2.88;;
68072;SDS011;54862;51.502;7.446;2023-02-01T05:07:48;15.05;;;3.20;;
68072;SDS011;54862;51.502;7.446;2023-02-01T05:10:14;12.25;;;2.65;;
68072;SDS011;54862;51.502;7.446;2023-02-01T05:12:40;15.00;;;3.35;;
68072;SDS011;54862;51.502;7.446;2023-02-01T05:15:26;11.32;;;2.90;;
68072;SDS011;54862;51.502;7.446;2023-02-01T05:17:52;16.25;;;3.88;;
68072;SDS011;54862;51.502;7.446;2023-02-01T05:20:18;15.77;;;2.97;;
68072;SDS011;54862;51.502;7.446;2023-02-01T05:22:44;13.93;;;3.42;;
68072;SDS011;54862;51.502;7.446;2023-02-01T05:25:10;12.32;;;3.40;;
68072;SDS011;54862;51.502;7.446;2023-02-01T05:27:36;15.18;;;3.42;;
68072;SDS011;54862;51.502;7.446;2023-02-01T05:30:03;14.75;;;3.28;;
68072;SDS011;54862;51.502;7.446;2023-02-01T05:32:29;16.95;;;3.65;;
68072;SDS011;54862;51.502;7.446;2023-02-01T05:34:55;12.38;;;3.55;;
68072;SDS011;54862;51.502;7.446;2023-02-01T05:37:21;11.18;;;3.17;;
68072;SDS011;54862;51.502;7.446;2023-02-01T05:39:47;9.65;;;3.20;;
68072;SDS011;54862;51.502;7.446;2023-02-01T05:42:13;13.25;;;2.75;;
68072;SDS011;54862;51.502;7.446;2023-02-01T05:44:39;13.25;;;3.25;;
68072;SDS011;54862;51.502;7.446;2023-02-01T05:47:05;18.02;;;4.72;;
68072;SDS011;54862;51.502;7.446;2023-02-01T05:49:31;15.65;;;3.58;;
68072;SDS011;54862;51.502;7.446;2023-02-01T05:51:57;8.98;;;2.55;;
68072;SDS011;54862;51.502;7.446;2023-02-01T05:54:23;17.75;;;3.80;;
68072;SDS011;54862;51.502;7.446;2023-02-01T05:56:49;12.70;;;2.80;;
68072;SDS011;54862;51.502;7.446;2023-02-01T05:59:15;18.85;;;3.78;;
68072;SDS011;54862;51.502;7.446;2023-02-01T06:01:41;17.90;;;4.05;;
68072;SDS011;54862;51.502;7.446;2023-02-01T06:04:07;18.15;;;3.63;;
68072;SDS011;54862;51.502;7.446;2023-02-01T06:06:33;13.13;;;3.30;;
68072;SDS011;54862;51.502;7.446;2023-02-01T06:08:59;14.70;;;3.30;;
68072;SDS011;54862;51.502;7.446;2023-02-01T06:11:25;23.90;;;3.90;;
68072;SDS011;54862;51.502;7.446;2023-02-01T06:13:52;15.57;;;4.20;;
68072;SDS011;54862;51.502;7.446;2023-02-01T06:16:20;14.07;;;3.17;;
68072;SDS011;54862;51.502;7.446;2023-02-01T06:18:46;17.38;;;2.95;;
68072;SDS011;54862;51.502;7.446;2023-02-01T06:21:12;12.13;;;3.28;;
68072;SDS011;54862;51.502;7.446;2023-02-01T06:23:48;18.20;;;3.63;;
68072;SDS011;54862;51.502;7.446;2023-02-01T06:26:15;18.55;;;3.70;;
68072;SDS011;54862;51.502;7.446;2023-02-01T06:28:42;30.85;;;8.23;;
68072;SDS011;54862;51.502;7.446;2023-02-01T06:31:09;21.80;;;4.03;;
68072;SDS011;54862;51.502;7.446;2023-02-01T06:33:35;27.88;;;5.07;;
68072;SDS011;54862;51.502;7.446;2023-02-01T06:36:02;14.48;;;3.72;;
68072;SDS011;54862;51.502;7.446;2023-02-01T06:38:29;11.43;;;2.95;;
68072;SDS011;54862;51.502;7.446;2023-02-01T06:40:56;15.60;;;4.32;;
68072;SDS011;54862;51.502;7.446;2023-02-01T06:43:23;14.45;;;3.45;;
68072;SDS011;54862;51.502;7.446;2023-02-01T06:45:49;17.45;;;3.65;;
68072;SDS011;54862;51.502;7.446;2023-02-01T06:48:16;14.02;;;3.58;;
68072;SDS011;54862;51.502;7.446;2023-02-01T06:50:42;15.30;;;4.35;;
68072;SDS011;54862;51.502;7.446;2023-02-01T06:53:08;15.32;;;3.85;;
68072;SDS011;54862;51.502;7.446;2023-02-01T06:55:34;18.20;;;4.63;;
68072;SDS011;54862;51.502;7.446;2023-02-01T06:58:00;23.92;;;6.13;;
68072;SDS011;54862;51.502;7.446;2023-02-01T07:00:27;21.17;;;4.05;;
68072;SDS011;54862;51.502;7.446;2023-02-01T07:02:53;22.95;;;3.95;;
68072;SDS011;54862;51.502;7.446;2023-02-01T07:05:19;16.35;;;3.28;;
68072;SDS011;54862;51.502;7.446;2023-02-01T07:07:45;16.35;;;3.70;;
68072;SDS011;54862;51.502;7.446;2023-02-01T07:10:11;17.90;;;3.60;;
68072;SDS011;54862;51.502;7.446;2023-02-01T07:12:37;16.60;;;4.32;;
68072;SDS011;54862;51.502;7.446;2023-02-01T07:15:03;17.45;;;4.57;;
68072;SDS011;54862;51.502;7.446;2023-02-01T07:17:29;23.73;;;4.80;;
68072;SDS011;54862;51.502;7.446;2023-02-01T07:19:55;14.55;;;4.13;;
68072;SDS011;54862;51.502;7.446;2023-02-01T07:22:23;15.57;;;4.18;;
68072;SDS011;54862;51.502;7.446;2023-02-01T07:24:49;12.95;;;3.13;;
68072;SDS011;54862;51.502;7.446;2023-02-01T07:27:15;17.42;;;4.35;;
68072;SDS011;54862;51.502;7.446;2023-02-01T07:29:41;18.50;;;3.85;;
68072;SDS011;54862;51.502;7.446;2023-02-01T07:32:07;17.77;;;3.83;;
68072;SDS011;54862;51.502;7.446;2023-02-01T07:34:33;9.52;;;3.13;;
68072;SDS011;54862;51.502;7.446;2023-02-01T07:36:59;14.70;;;3.35;;
68072;SDS011;54862;51.502;7.446;2023-02-01T07:39:25;16.48;;;3.42;;
68072;SDS011;54862;51.502;7.446;2023-02-01T07:41:56;18.40;;;3.85;;
68072;SDS011;54862;51.502;7.446;2023-02-01T07:44:22;16.65;;;3.75;;
68072;SDS011;54862;51.502;7.446;2023-02-01T07:46:49;15.73;;;3.92;;
68072;SDS011;54862;51.502;7.446;2023-02-01T07:49:15;15.32;;;3.22;;
68072;SDS011;54862;51.502;7.446;2023-02-01T07:51:42;11.48;;;3.05;;
68072;SDS011;54862;51.502;7.446;2023-02-01T07:54:08;18.80;;;3.83;;
68072;SDS011;54862;51.502;7.446;2023-02-01T07:56:34;15.10;;;4.20;;
68072;SDS011;54862;51.502;7.446;2023-02-01T07:59:00;16.75;;;3.58;;
68072;SDS011;54862;51.502;7.446;2023-02-01T08:01:27;15.02;;;3.95;;
68072;SDS011;54862;51.502;7.446;2023-02-01T08:03:54;17.30;;;4.25;;
68072;SDS011;54862;51.502;7.446;2023-02-01T08:06:21;16.25;;;4.10;;
68072;SDS011;54862;51.502;7.446;2023-02-01T08:08:47;21.38;;;4.68;;
68072;SDS011;54862;51.502;7.446;2023-02-01T08:11:14;15.30;;;4.20;;
68072;SDS011;54862;51.502;7.446;2023-02-01T08:13:40;20.77;;;5.10;;
68072;SDS011;54862;51.502;7.446;2023-02-01T08:16:07;16.45;;;4.07;;
68072;SDS011;54862;51.502;7.446;2023-02-01T08:18:34;15.20;;;4.40;;
68072;SDS011;54862;51.502;7.446;2023-02-01T08:21:04;15.75;;;4.30;;
68072;SDS011;54862;51.502;7.446;2023-02-01T08:23:30;12.18;;;4.07;;
68072;SDS011;54862;51.502;7.446;2023-02-01T08:26:08;20.30;;;5.95;;
68072;SDS011;54862;51.502;7.446;2023-02-01T08:28:35;18.13;;;4.75;;
68072;SDS011;54862;51.502;7.446;2023-02-01T08:31:05;17.95;;;4.85;;
68072;SDS011;54862;51.502;7.446;2023-02-01T08:33:31;15.45;;;5.18;;
68072;SDS011;54862;51.502;7.446;2023-02-01T08:35:59;12.18;;;4.22;;
68072;SDS011;54862;51.502;7.446;2023-02-01T08:38:25;15.63;;;4.63;;
68072;SDS011;54862;51.502;7.446;2023-02-01T08:40:51;17.52;;;4.22;;
68072;SDS011;54862;51.502;7.446;2023-02-01T08:43:18;17.90;;;5.28;;
68072;SDS011;54862;51.502;7.446;2023-02-01T08:45:44;16.70;;;4.40;;
68072;SDS011;54862;51.502;7.446;2023-02-01T08:48:11;14.43;;;4.25;;
68072;SDS011;54862;51.502;7.446;2023-02-01T08:50:37;14.90;;;4.40;;
68072;SDS011;54862;51.502;7.446;2023-02-01T08:53:03;13.85;;;4.43;;
68072;SDS011;54862;51.502;7.446;2023-02-01T08:55:29;20.08;;;5.07;;
68072;SDS011;54862;51.502;7.446;2023-02-01T08:57:55;13.60;;;4.60;;
68072;SDS011;54862;51.502;7.446;2023-02-01T09:00:24;15.73;;;5.35;;
68072;SDS011;54862;51.502;7.446;2023-02-01T09:03:29;17.48;;;5.13;;
68072;SDS011;54862;51.502;7.446;2023-02-01T09:06:05;15.88;;;4.40;;
68072;SDS011;54862;51.502;7.446;2023-02-01T09:08:32;22.10;;;6.40;;
68072;SDS011;54862;51.502;7.446;2023-02-01T09:11:01;21.20;;;5.57;;
68072;SDS011;54862;51.502;7.446;2023-02-01T09:13:27;22.15;;;5.38;;
68072;SDS011;54862;51.502;7.446;2023-02-01T09:15:54;17.23;;;4.55;;
68072;SDS011;54862;51.502;7.446;2023-02-01T09:18:20;18.80;;;5.50;;
68072;SDS011;54862;51.502;7.446;2023-02-01T09:20:46;16.73;;;5.07;;
68072;SDS011;54862;51.502;7.446;2023-02-01T09:23:12;14.55;;;4.63;;
68072;SDS011;54862;51.502;7.446;2023-02-01T09:25:38;17.17;;;4.90;;
68072;SDS011;54862;51.502;7.446;2023-02-01T09:28:04;15.73;;;5.07;;
68072;SDS011;54862;51.502;7.446;2023-02-01T09:30:34;18.25;;;5.38;;
68072;SDS011;54862;51.502;7.446;2023-02-01T09:33:00;19.45;;;4.57;;
68072;SDS011;54862;51.502;7.446;2023-02-01T09:35:26;13.88;;;4.05;;
68072;SDS011;54862;51.502;7.446;2023-02-01T09:37:52;20.25;;;4.80;;
68072;SDS011;54862;51.502;7.446;2023-02-01T09:40:19;16.13;;;4.80;;
68072;SDS011;54862;51.502;7.446;2023-02-01T09:45:38;25.35;;;5.97;;
68072;SDS011;54862;51.502;7.446;2023-02-01T09:48:11;13.05;;;4.55;;
68072;SDS011;54862;51.502;7.446;2023-02-01T09:50:39;15.15;;;4.85;;
68072;SDS011;54862;51.502;7.446;2023-02-01T09:55:53;14.23;;;4.22;;
68072;SDS011;54862;51.502;7.446;2023-02-01T10:00:53;18.73;;;4.80;;
68072;SDS011;54862;51.502;7.446;2023-02-01T10:03:20;19.05;;;4.80;;
68072;SDS011;54862;51.502;7.446;2023-02-01T10:10:58;15.15;;;4.00;;
68072;SDS011;54862;51.502;7.446;2023-02-01T10:18:34;11.35;;;4.13;;
68072;SDS011;54862;51.502;7.446;2023-02-01T10:26:33;12.40;;;4.13;;
68072;SDS011;54862;51.502;7.446;2023-02-01T10:29:00;17.10;;;4.88;;
68072;SDS011;54862;51.502;7.446;2023-02-01T10:31:28;23.08;;;5.22;;
68072;SDS011;54862;51.502;7.446;2023-02-01T10:33:59;20.77;;;5.30;;
68072;SDS011;54862;51.502;7.446;2023-02-01T10:36:31;16.13;;;4.78;;
68072;SDS011;54862;51.502;7.446;2023-02-01T10:38:58;12.50;;;4.20;;
68072;SDS011;54862;51.502;7.446;2023-02-01T10:41:26;11.18;;;4.40;;
68072;SDS011;54862;51.502;7.446;2023-02-01T10:43:56;13.05;;;4.47;;
68072;SDS011;54862;51.502;7.446;2023-02-01T10:46:23;18.30;;;4.97;;
68072;SDS011;54862;51.502;7.446;2023-02-01T10:48:49;9.93;;;3.58;;
68072;SDS011;54862;51.502;7.446;2023-02-01T10:51:20;14.32;;;4.03;;
68072;SDS011;54862;51.502;7.446;2023-02-01T10:54:03;12.75;;;4.43;;
68072;SDS011;54862;51.502;7.446;2023-02-01T10:56:30;14.15;;;4.32;;
68072;SDS011;54862;51.502;7.446;2023-02-01T10:59:06;22.20;;;4.88;;
68072;SDS011;54862;51.502;7.446;2023-02-01T11:01:40;10.93;;;4.00;;
68072;SDS011;54862;51.502;7.446;2023-02-01T11:04:11;20.50;;;4.70;;
68072;SDS011;54862;51.502;7.446;2023-02-01T11:06:39;13.77;;;4.15;;
68072;SDS011;54862;51.502;7.446;2023-02-01T11:11:32;17.20;;;5.22;;
68072;SDS011;54862;51.502;7.446;2023-02-01T11:13:59;19.25;;;4.53;;
68072;SDS011;54862;51.502;7.446;2023-02-01T11:16:30;15.40;;;4.53;;
68072;SDS011;54862;51.502;7.446;2023-02-01T11:18:56;12.65;;;4.10;;
68072;SDS011;54862;51.502;7.446;2023-02-01T11:21:23;15.77;;;3.92;;
68072;SDS011;54862;51.502;7.446;2023-02-01T11:23:49;16.83;;;4.05;;
68072;SDS011;54862;51.502;7.446;2023-02-01T11:26:23;16.05;;;4.47;;
68072;SDS011;54862;51.502;7.446;2023-02-01T11:28:51;13.15;;;4.35;;
68072;SDS011;54862;51.502;7.446;2023-02-01T11:31:17;14.70;;;4.25;;
68072;SDS011;54862;51.502;7.446;2023-02-01T11:33:51;13.02;;;4.20;;
68072;SDS011;54862;51.502;7.446;2023-02-01T11:36:20;11.85;;;3.28;;
68072;SDS011;54862;51.502;7.446;2023-02-01T11:41:31;12.48;;;4.40;;
68072;SDS011;54862;51.502;7.446;2023-02-01T11:44:01;13.57;;;3.63;;
68072;SDS011;54862;51.502;7.446;2023-02-01T11:46:31;13.95;;;4.30;;
68072;SDS011;54862;51.502;7.446;2023-02-01T11:49:13;15.50;;;4.25;;
68072;SDS011;54862;51.502;7.446;2023-02-01T11:51:46;14.90;;;4.32;;
68072;SDS011;54862;51.502;7.446;2023-02-01T11:54:22;16.23;;;4.03;;
68072;SDS011;54862;51.502;7.446;2023-02-01T11:56:55;22.92;;;4.28;;
68072;SDS011;54862;51.502;7.446;2023-02-01T11:59:45;15.65;;;4.20;;
68072;SDS011;54862;51.502;7.446;2023-02-01T12:04:57;17.83;;;4.10;;
68072;SDS011;54862;51.502;7.446;2023-02-01T12:10:16;16.80;;;5.40;;
68072;SDS011;54862;51.502;7.446;2023-02-01T12:15:21;16.58;;;4.38;;
68072;SDS011;54862;51.502;7.446;2023-02-01T12:17:54;23.13;;;5.07;;
68072;SDS011;54862;51.502;7.446;2023-02-01T12:20:35;17.80;;;4.53;;
68072;SDS011;54862;51.502;7.446;2023-02-01T12:33:07;22.20;;;5.35;;
68072;SDS011;54862;51.502;7.446;2023-02-01T12:43:45;15.80;;;4.13;;
68072;SDS011;54862;51.502;7.446;2023-02-01T12:46:15;14.95;;;3.88;;
68072;SDS011;54862;51.502;7.446;2023-02-01T12:48:45;11.93;;;4.15;;
68072;SDS011;54862;51.502;7.446;2023-02-01T12:51:15;20.38;;;5.28;;
68072;SDS011;54862;51.502;7.446;2023-02-01T12:53:55;17.10;;;4.13;;
68072;SDS011;54862;51.502;7.446;2023-02-01T12:56:23;11.82;;;4.20;;
68072;SDS011;54862;51.502;7.446;2023-02-01T12:58:52;17.52;;;4.80;;
68072;SDS011;54862;51.502;7.446;2023-02-01T13:06:31;13.57;;;3.72;;
68072;SDS011;54862;51.502;7.446;2023-02-01T13:11:26;21.85;;;4.38;;
68072;SDS011;54862;51.502;7.446;2023-02-01T13:16:34;12.50;;;3.97;;
68072;SDS011;54862;51.502;7.446;2023-02-01T13:21:46;18.38;;;3.83;;
68072;SDS011;54862;51.502;7.446;2023-02-01T13:24:20;14.25;;;4.13;;
68072;SDS011;54862;51.502;7.446;2023-02-01T13:26:48;13.30;;;3.33;;
68072;SDS011;54862;51.502;7.446;2023-02-01T13:29:15;17.40;;;4.40;;
68072;SDS011;54862;51.502;7.446;2023-02-01T13:36:52;15.55;;;3.33;;
68072;SDS011;54862;51.502;7.446;2023-02-01T13:39:26;13.52;;;3.65;;
68072;SDS011;54862;51.502;7.446;2023-02-01T13:44:26;17.08;;;3.25;;
68072;SDS011;54862;51.502;7.446;2023-02-01T13:46:54;18.98;;;4.38;;
68072;SDS011;54862;51.502;7.446;2023-02-01T13:49:26;10.63;;;3.15;;
68072;SDS011;54862;51.502;7.446;2023-02-01T13:51:53;19.35;;;4.03;;
68072;SDS011;54862;51.502;7.446;2023-02-01T13:54:24;13.07;;;3.20;;
68072;SDS011;54862;51.502;7.446;2023-02-01T13:56:50;10.88;;;3.25;;
68072;SDS011;54862;51.502;7.446;2023-02-01T13:59:36;12.43;;;3.85;;
68072;SDS011;54862;51.502;7.446;2023-02-01T14:04:48;14.85;;;3.97;;
68072;SDS011;54862;51.502;7.446;2023-02-01T14:07:19;14.02;;;3.55;;
68072;SDS011;54862;51.502;7.446;2023-02-01T14:09:45;28.55;;;5.82;;
68072;SDS011;54862;51.502;7.446;2023-02-01T14:15:16;23.13;;;4.10;;
68072;SDS011;54862;51.502;7.446;2023-02-01T14:17:45;13.25;;;3.35;;
68072;SDS011;54862;51.502;7.446;2023-02-01T14:23:01;20.45;;;4.97;;
68072;SDS011;54862;51.502;7.446;2023-02-01T14:25:32;15.40;;;3.58;;
68072;SDS011;54862;51.502;7.446;2023-02-01T14:27:58;10.52;;;2.90;;
68072;SDS011;54862;51.502;7.446;2023-02-01T14:30:24;13.20;;;3.45;;
68072;SDS011;54862;51.502;7.446;2023-02-01T14:32:50;12.77;;;3.45;;
68072;SDS011;54862;51.502;7.446;2023-02-01T14:35:20;16.45;;;3.65;;
68072;SDS011;54862;51.502;7.446;2023-02-01T14:37:50;10.68;;;3.10;;
68072;SDS011;54862;51.502;7.446;2023-02-01T14:40:20;18.02;;;3.78;;
68072;SDS011;54862;51.502;7.446;2023-02-01T14:42:49;17.67;;;3.53;;
68072;SDS011;54862;51.502;7.446;2023-02-01T14:47:53;14.02;;;3.55;;
68072;SDS011;54862;51.502;7.446;2023-02-01T14:55:55;11.82;;;3.22;;
68072;SDS011;54862;51.502;7.446;2023-02-01T15:08:52;15.07;;;3.15;;
68072;SDS011;54862;51.502;7.446;2023-02-01T15:11:20;10.88;;;3.00;;
68072;SDS011;54862;51.502;7.446;2023-02-01T15:13:50;13.10;;;3.63;;
68072;SDS011;54862;51.502;7.446;2023-02-01T15:16:18;14.95;;;3.28;;
68072;SDS011;54862;51.502;7.446;2023-02-01T15:18:44;11.32;;;3.20;;
68072;SDS011;54862;51.502;7.446;2023-02-01T15:21:23;11.63;;;3.25;;
68072;SDS011;54862;51.502;7.446;2023-02-01T15:23:50;17.27;;;3.15;;
68072;SDS011;54862;51.502;7.446;2023-02-01T15:26:26;18.10;;;3.42;;
68072;SDS011;54862;51.502;7.446;2023-02-01T15:28:52;16.83;;;3.13;;
68072;SDS011;54862;51.502;7.446;2023-02-01T15:31:30;17.17;;;4.10;;
68072;SDS011;54862;51.502;7.446;2023-02-01T15:33:57;13.13;;;3.90;;
68072;SDS011;54862;51.502;7.446;2023-02-01T15:36:23;13.15;;;3.35;;
68072;SDS011;54862;51.502;7.446;2023-02-01T15:41:36;22.55;;;3.80;;
68072;SDS011;54862;51.502;7.446;2023-02-01T15:44:04;16.17;;;3.63;;
68072;SDS011;54862;51.502;7.446;2023-02-01T15:48:57;16.60;;;3.00;;
68072;SDS011;54862;51.502;7.446;2023-02-01T15:51:24;18.23;;;3.83;;
68072;SDS011;54862;51.502;7.446;2023-02-01T15:56:21;12.95;;;3.03;;
68072;SDS011;54862;51.502;7.446;2023-02-01T15:58:48;15.68;;;3.33;;
68072;SDS011;54862;51.502;7.446;2023-02-01T16:01:16;17.15;;;3.58;;
68072;SDS011;54862;51.502;7.446;2023-02-01T16:03:43;11.90;;;3.28;;
68072;SDS011;54862;51.502;7.446;2023-02-01T16:09:07;9.00;;;2.97;;
68072;SDS011;54862;51.502;7.446;2023-02-01T16:11:41;13.77;;;3.92;;
68072;SDS011;54862;51.502;7.446;2023-02-01T16:14:08;9.73;;;3.25;;
68072;SDS011;54862;51.502;7.446;2023-02-01T16:16:35;13.07;;;3.35;;
68072;SDS011;54862;51.502;7.446;2023-02-01T16:19:01;11.50;;;3.28;;
68072;SDS011;54862;51.502;7.446;2023-02-01T16:21:27;18.95;;;4.30;;
68072;SDS011;54862;51.502;7.446;2023-02-01T16:23:53;12.15;;;3.28;;
68072;SDS011;54862;51.502;7.446;2023-02-01T16:26:19;14.88;;;3.28;;
68072;SDS011;54862;51.502;7.446;2023-02-01T16:28:45;11.40;;;3.03;;
68072;SDS011;54862;51.502;7.446;2023-02-01T16:31:12;11.75;;;2.95;;
68072;SDS011;54862;51.502;7.446;2023-02-01T16:33:50;15.80;;;3.33;;
68072;SDS011;54862;51.502;7.446;2023-02-01T16:36:16;12.30;;;3.45;;
68072;SDS011;54862;51.502;7.446;2023-02-01T16:38:43;15.80;;;3.33;;
68072;SDS011;54862;51.502;7.446;2023-02-01T16:41:11;17.05;;;4.32;;
68072;SDS011;54862;51.502;7.446;2023-02-01T16:43:37;16.67;;;4.38;;
68072;SDS011;54862;51.502;7.446;2023-02-01T16:46:04;17.63;;;3.72;;
68072;SDS011;54862;51.502;7.446;2023-02-01T16:48:33;18.70;;;4.07;;
68072;SDS011;54862;51.502;7.446;2023-02-01T16:54:00;10.85;;;3.78;;
68072;SDS011;54862;51.502;7.446;2023-02-01T16:56:31;11.30;;;3.47;;
68072;SDS011;54862;51.502;7.446;2023-02-01T16:58:58;15.75;;;4.22;;
68072;SDS011;54862;51.502;7.446;2023-02-01T17:01:24;15.80;;;3.95;;
68072;SDS011;54862;51.502;7.446;2023-02-01T17:03:50;24.58;;;5.25;;
68072;SDS011;54862;51.502;7.446;2023-02-01T17:06:18;14.57;;;4.15;;
68072;SDS011;54862;51.502;7.446;2023-02-01T17:08:46;14.50;;;5.18;;
68072;SDS011;54862;51.502;7.446;2023-02-01T17:11:12;16.88;;;4.97;;
68072;SDS011;54862;51.502;7.446;2023-02-01T17:13:39;12.88;;;4.18;;
68072;SDS011;54862;51.502;7.446;2023-02-01T17:18:36;6.88;;;2.63;;